createdAt,value
2018-12-22T00:00:23.933Z,95.44
2018-12-22T00:02:55.666Z,95.89
2018-12-22T00:05:27.319Z,96.11
2018-12-22T00:07:57.973Z,96.20
2018-12-22T00:10:29.301Z,95.91
2018-12-22T00:13:01.632Z,96.19
2018-12-22T00:15:33.066Z,96.71
2018-12-22T00:18:03.557Z,96.63
2018-12-22T00:20:34.182Z,97.15
2018-12-22T00:23:04.888Z,97.43
2018-12-22T00:25:35.964Z,97.65
2018-12-22T00:28:06.440Z,97.75
2018-12-22T00:30:36.018Z,98.03
2018-12-22T00:33:07.139Z,98.16
2018-12-22T00:35:38.862Z,98.18
2018-12-22T00:38:09.060Z,98.47
2018-12-22T00:40:38.819Z,98.57
2018-12-22T00:43:08.543Z,98.33
2018-12-22T00:45:38.644Z,98.23
2018-12-22T00:48:09.928Z,98.59
2018-12-22T00:50:41.497Z,98.01
2018-12-22T00:53:12.928Z,97.36
2018-12-22T00:55:43.334Z,96.49
2018-12-22T00:58:13.222Z,96.42
2018-12-22T01:00:43.486Z,96.11
2018-12-22T01:03:13.789Z,96.22
2018-12-22T01:05:45.485Z,96.63
2018-12-22T01:08:15.599Z,97.04
2018-12-22T01:10:46.044Z,96.95
2018-12-22T01:13:15.610Z,97.12
2018-12-22T01:15:45.460Z,96.99
2018-12-22T01:18:16.317Z,97.40
2018-12-22T01:20:46.296Z,97.50
2018-12-22T01:23:16.208Z,97.68
2018-12-22T01:25:47.295Z,97.96
2018-12-22T01:28:18.382Z,98.34
2018-12-22T01:30:48.373Z,98.73
2018-12-22T01:33:20.091Z,98.76
2018-12-22T01:35:51.355Z,98.67
2018-12-22T01:38:22.317Z,98.76
2018-12-22T01:40:52.700Z,98.43
2018-12-22T01:43:27.121Z,98.10
2018-12-22T01:45:57.602Z,98.27
2018-12-22T01:48:27.958Z,98.13
2018-12-22T01:51:00.874Z,97.86
2018-12-22T01:53:30.699Z,98.70
2018-12-22T01:56:00.281Z,98.19
2018-12-22T01:58:32.160Z,98.14
2018-12-22T02:01:02.179Z,98.37
2018-12-22T02:03:32.039Z,97.92
2018-12-22T02:06:03.512Z,97.77
2018-12-22T02:08:34.105Z,97.85
2018-12-22T02:11:04.580Z,97.51
2018-12-22T02:13:35.120Z,97.09
2018-12-22T02:16:06.409Z,97.35
2018-12-22T02:18:36.897Z,96.83
2018-12-22T02:21:09.406Z,96.93
2018-12-22T02:23:39.600Z,96.52
2018-12-22T02:26:10.534Z,96.00
2018-12-22T02:28:40.104Z,95.78
2018-12-22T02:31:11.855Z,95.50
2018-12-22T02:33:44.920Z,95.39
2018-12-22T02:36:17.293Z,94.88
2018-12-22T02:38:48.264Z,94.80
2018-12-22T02:41:20.620Z,94.82
2018-12-22T02:43:52.752Z,94.62
2018-12-22T02:46:23.962Z,94.45
2018-12-22T02:48:54.069Z,93.89
2018-12-22T02:51:24.211Z,93.97
2018-12-22T02:53:55.076Z,93.76
2018-12-22T02:56:25.121Z,94.30
2018-12-22T02:59:05.642Z,94.18
2018-12-22T03:01:31.264Z,94.26
2018-12-22T03:04:06.410Z,94.51
2018-12-22T03:06:38.721Z,94.28
2018-12-22T03:09:12.793Z,93.72
2018-12-22T03:11:42.772Z,94.37
2018-12-22T03:14:13.127Z,93.94
2018-12-22T03:16:42.803Z,94.24
2018-12-22T03:19:12.608Z,94.44
2018-12-22T03:21:42.734Z,94.01
2018-12-22T03:24:13.179Z,93.82
2018-12-22T03:26:42.878Z,93.56
2018-12-22T03:29:15.811Z,93.42
2018-12-22T03:31:46.003Z,93.42
2018-12-22T03:34:15.980Z,93.74
2018-12-22T03:36:48.320Z,94.10
2018-12-22T03:39:20.066Z,93.97
2018-12-22T03:41:50.671Z,94.60
2018-12-22T03:44:21.481Z,94.91
2018-12-22T03:46:51.756Z,95.15
2018-12-22T03:49:21.679Z,95.07
2018-12-22T03:51:52.416Z,95.39
2018-12-22T03:54:24.465Z,95.77
2018-12-22T03:56:54.841Z,96.12
2018-12-22T03:59:25.292Z,96.02
2018-12-22T04:01:56.696Z,96.43
2018-12-22T04:04:27.742Z,96.71
2018-12-22T04:06:59.358Z,96.64
2018-12-22T04:09:29.893Z,96.84
2018-12-22T04:12:01.072Z,96.57
2018-12-22T04:14:31.330Z,96.74
2018-12-22T04:17:00.940Z,96.99
2018-12-22T04:19:36.731Z,96.85
2018-12-22T04:22:06.281Z,96.89
2018-12-22T04:24:39.032Z,97.18
2018-12-22T04:27:10.410Z,97.16
2018-12-22T04:29:40.623Z,97.36
2018-12-22T04:32:11.399Z,97.18
2018-12-22T04:34:42.307Z,97.19
2018-12-22T04:37:11.918Z,96.93
2018-12-22T04:39:41.618Z,97.49
2018-12-22T04:42:11.904Z,97.17
2018-12-22T04:44:42.109Z,97.42
2018-12-22T04:47:11.469Z,97.52
2018-12-22T04:49:41.387Z,97.05
2018-12-22T04:52:11.645Z,97.58
2018-12-22T04:54:41.939Z,97.75
2018-12-22T04:57:11.665Z,98.12
2018-12-22T04:59:43.458Z,97.78
2018-12-22T05:02:13.965Z,98.32
2018-12-22T05:04:45.212Z,98.54
2018-12-22T05:07:15.245Z,98.62
2018-12-22T05:09:45.404Z,98.96
2018-12-22T05:12:15.357Z,98.55
2018-12-22T05:14:45.111Z,98.47
2018-12-22T05:17:15.539Z,98.50
2018-12-22T05:19:45.252Z,98.68
2018-12-22T05:22:14.988Z,98.22
2018-12-22T05:24:44.704Z,98.45
2018-12-22T05:27:14.795Z,98.28
2018-12-22T05:29:51.866Z,98.37
2018-12-22T05:32:17.601Z,98.40
2018-12-22T05:34:48.688Z,98.06
2018-12-22T05:37:18.571Z,97.98
2018-12-22T05:39:48.180Z,98.33
2018-12-22T05:42:17.978Z,97.74
2018-12-22T05:44:47.985Z,98.27
2018-12-22T05:47:17.707Z,98.26
2018-12-22T05:49:49.509Z,98.21
2018-12-22T05:52:19.259Z,98.14
2018-12-22T05:54:49.259Z,98.26
2018-12-22T05:57:19.107Z,98.18
2018-12-22T05:59:49.400Z,98.10
2018-12-22T06:02:19.134Z,98.02
2018-12-22T06:04:49.502Z,98.01
2018-12-22T06:07:21.422Z,98.20
2018-12-22T06:09:51.186Z,98.50
2018-12-22T06:12:20.923Z,98.65
2018-12-22T06:14:51.192Z,98.60
2018-12-22T06:17:21.168Z,98.85
2018-12-22T06:19:50.992Z,98.74
2018-12-22T06:22:20.471Z,98.87
2018-12-22T06:24:51.171Z,98.73
2018-12-22T06:27:21.917Z,98.74
2018-12-22T06:29:54.699Z,99.18
2018-12-22T06:32:24.766Z,99.02
2018-12-22T06:34:54.974Z,98.41
2018-12-22T06:37:25.693Z,98.32
2018-12-22T06:39:55.450Z,97.88
2018-12-22T06:42:25.445Z,97.24
2018-12-22T06:44:56.877Z,96.67
2018-12-22T06:47:27.163Z,96.16
2018-12-22T06:49:58.343Z,96.07
2018-12-22T06:52:29.588Z,95.73
2018-12-22T06:54:59.445Z,95.39
2018-12-22T06:57:30.268Z,95.25
2018-12-22T07:00:01.153Z,95.64
2018-12-22T07:02:35.359Z,94.68
2018-12-22T07:05:10.733Z,94.51
2018-12-22T07:07:44.829Z,94.76
2018-12-22T07:10:15.043Z,93.86
2018-12-22T07:12:46.108Z,94.07
2018-12-22T07:15:17.253Z,93.64
2018-12-22T07:17:48.362Z,92.95
2018-12-22T07:20:17.964Z,93.72
2018-12-22T07:22:48.498Z,92.86
2018-12-22T07:25:19.821Z,92.66
2018-12-22T07:27:49.928Z,93.20
2018-12-22T07:30:26.187Z,91.54
2018-12-22T07:32:57.589Z,92.56
2018-12-22T07:35:29.026Z,91.83
2018-12-22T07:37:59.141Z,93.29
2018-12-22T07:40:30.109Z,94.54
2018-12-22T07:43:00.484Z,94.85
2018-12-22T07:45:31.209Z,95.84
2018-12-22T07:48:02.917Z,95.62
2018-12-22T07:50:33.113Z,96.52
2018-12-22T07:53:04.244Z,96.68
2018-12-22T07:55:33.949Z,96.76
2018-12-22T07:58:04.707Z,97.35
2018-12-22T08:00:36.977Z,97.24
2018-12-22T08:03:07.445Z,97.00
2018-12-22T08:05:39.015Z,97.21
2018-12-22T08:08:09.173Z,97.06
2018-12-22T08:10:40.904Z,96.55
2018-12-22T08:13:15.880Z,96.56
2018-12-22T08:15:45.875Z,95.89
2018-12-22T08:18:15.868Z,95.50
2018-12-22T08:20:47.632Z,95.57
2018-12-22T08:23:18.440Z,95.55
2018-12-22T08:25:48.261Z,95.31
2018-12-22T08:28:18.444Z,95.50
2018-12-22T08:30:48.364Z,94.90
2018-12-22T08:33:18.475Z,94.89
2018-12-22T08:35:48.160Z,94.69
2018-12-22T08:38:18.488Z,94.80
2018-12-22T08:40:50.000Z,95.35
2018-12-22T08:43:21.401Z,94.56
2018-12-22T08:45:54.716Z,94.21
2018-12-22T08:48:25.223Z,94.52
2018-12-22T08:51:00.150Z,95.00
2018-12-22T08:53:33.443Z,94.66
2018-12-22T08:56:05.212Z,94.53
2018-12-22T08:58:37.758Z,94.13
2018-12-22T09:01:11.379Z,94.37
2018-12-22T09:03:42.637Z,94.76
2018-12-22T09:06:13.515Z,94.87
2018-12-22T09:08:43.542Z,95.05
2018-12-22T09:11:13.337Z,95.77
2018-12-22T09:13:43.153Z,95.75
2018-12-22T09:16:14.825Z,96.08
2018-12-22T09:18:51.431Z,95.83
2018-12-22T09:21:21.709Z,95.46
2018-12-22T09:23:51.743Z,94.78
2018-12-22T09:26:22.332Z,94.29
2018-12-22T09:28:52.700Z,94.80
2018-12-22T09:31:22.845Z,94.48
2018-12-22T09:33:54.833Z,94.44
2018-12-22T09:36:25.101Z,94.31
2018-12-22T09:41:21.540Z,94.45
2018-12-22T09:43:52.236Z,93.27
2018-12-22T09:46:22.435Z,93.54
2018-12-22T09:48:55.967Z,93.84
2018-12-22T09:51:25.888Z,94.64
2018-12-22T09:53:57.544Z,95.17
2018-12-22T09:56:29.128Z,95.21
2018-12-22T09:58:59.309Z,95.80
2018-12-22T10:01:30.213Z,96.39
2018-12-22T10:04:00.276Z,96.77
2018-12-22T10:06:30.892Z,97.26
2018-12-22T10:09:04.057Z,97.77
2018-12-22T10:11:34.863Z,97.86
2018-12-22T10:14:04.769Z,98.02
2018-12-22T10:16:34.914Z,98.05
2018-12-22T10:19:06.620Z,98.57
2018-12-22T10:21:38.578Z,98.82
2018-12-22T10:24:09.286Z,98.85
2018-12-22T10:26:40.836Z,98.66
2018-12-22T10:29:12.771Z,98.90
2018-12-22T10:31:43.466Z,99.07
2018-12-22T10:34:14.923Z,98.90
2018-12-22T10:36:45.580Z,98.78
2018-12-22T10:39:16.863Z,98.99
2018-12-22T10:41:48.332Z,98.64
2018-12-22T10:44:20.523Z,98.45
2018-12-22T10:46:52.287Z,98.38
2018-12-22T10:49:24.229Z,98.41
2018-12-22T10:51:55.387Z,98.17
2018-12-22T10:54:26.229Z,98.09
2018-12-22T10:56:56.981Z,98.35
2018-12-22T10:59:26.781Z,97.90
2018-12-22T11:01:58.660Z,97.30
2018-12-22T11:04:30.350Z,97.66
2018-12-22T11:07:01.372Z,97.23
2018-12-22T11:09:31.946Z,96.89
2018-12-22T11:12:02.672Z,96.95
2018-12-22T11:14:33.518Z,96.96
2018-12-22T11:17:04.141Z,96.24
2018-12-22T11:19:37.729Z,95.83
2018-12-22T11:22:07.562Z,95.61
2018-12-22T11:24:37.816Z,95.16
2018-12-22T11:27:08.641Z,95.71
2018-12-22T11:29:41.909Z,95.48
2018-12-22T11:32:11.749Z,95.36
2018-12-22T11:34:44.090Z,95.39
2018-12-22T11:37:16.293Z,95.22
2018-12-22T11:39:50.798Z,95.66
2018-12-22T11:42:23.376Z,95.05
2018-12-22T11:44:53.824Z,94.84
2018-12-22T11:47:32.162Z,95.06
2018-12-22T11:50:08.550Z,94.67
2018-12-22T11:52:42.161Z,93.88
2018-12-22T11:55:15.516Z,94.02
2018-12-22T11:57:52.317Z,93.85
2018-12-22T12:00:23.977Z,92.94
2018-12-22T12:02:54.958Z,92.97
2018-12-22T12:05:25.704Z,92.03
2018-12-22T12:07:58.220Z,91.22
2018-12-22T12:10:29.571Z,91.54
2018-12-22T12:12:59.954Z,91.92
2018-12-22T12:15:44.050Z,92.60
2018-12-22T12:18:26.459Z,92.65
2018-12-22T12:20:57.109Z,92.46
2018-12-22T12:23:28.919Z,92.40
2018-12-22T12:25:58.377Z,91.99
2018-12-22T12:28:31.217Z,89.43
2018-12-22T12:31:02.412Z,88.49
2018-12-22T12:33:32.136Z,88.28
2018-12-22T12:36:04.881Z,88.07
2018-12-22T12:38:36.024Z,89.31
2018-12-22T12:41:07.922Z,90.24
2018-12-22T12:43:38.717Z,89.66
2018-12-22T12:46:08.358Z,89.93
2018-12-22T12:48:39.364Z,90.01
2018-12-22T12:51:09.613Z,90.37
2018-12-22T12:53:41.627Z,89.31
2018-12-22T12:56:12.345Z,89.72
2018-12-22T12:58:43.133Z,90.00
2018-12-22T13:01:13.545Z,89.49
2018-12-22T13:03:45.529Z,89.92
2018-12-22T13:06:16.916Z,90.46
2018-12-22T13:08:50.097Z,90.54
2018-12-22T13:11:21.063Z,91.22
2018-12-22T13:13:58.021Z,91.58
2018-12-22T13:16:29.469Z,91.14
2018-12-22T13:19:00.781Z,91.08
2018-12-22T13:21:31.681Z,90.17
2018-12-22T13:24:05.423Z,90.37
2018-12-22T13:26:36.844Z,90.00
2018-12-22T13:29:08.790Z,90.04
2018-12-22T13:31:41.003Z,89.38
2018-12-22T13:34:13.333Z,90.29
2018-12-22T13:36:45.671Z,90.63
2018-12-22T13:39:19.430Z,90.32
2018-12-22T13:41:52.460Z,90.38
2018-12-22T13:44:24.594Z,90.47
2018-12-22T13:46:57.053Z,90.87
2018-12-22T13:49:26.813Z,91.33
2018-12-22T13:51:58.956Z,91.08
2018-12-22T13:54:30.982Z,91.14
2018-12-22T13:57:02.412Z,91.25
2018-12-22T13:59:32.755Z,91.00
2018-12-22T14:02:06.958Z,91.02
2018-12-22T14:04:37.769Z,90.67
2018-12-22T14:07:13.529Z,90.45
2018-12-22T14:09:46.055Z,90.87
2018-12-22T14:12:17.796Z,91.07
2018-12-22T14:14:47.651Z,91.72
2018-12-22T14:17:23.920Z,91.82
2018-12-22T14:20:03.128Z,92.39
2018-12-22T14:22:38.105Z,92.17
2018-12-22T14:25:14.804Z,92.51
2018-12-22T14:27:45.777Z,92.64
2018-12-22T14:30:16.408Z,92.44
2018-12-22T14:32:46.799Z,92.30
2018-12-22T14:38:21.613Z,92.86
2018-12-22T14:40:56.587Z,92.89
2018-12-22T14:43:28.360Z,92.83
2018-12-22T14:45:59.380Z,93.05
2018-12-22T14:48:29.556Z,92.89
2018-12-22T14:51:00.560Z,92.45
2018-12-22T14:53:30.314Z,91.93
2018-12-22T14:56:00.107Z,91.61
2018-12-22T14:58:33.260Z,90.51
2018-12-22T15:01:03.824Z,89.34
2018-12-22T15:03:37.559Z,88.43
2018-12-22T15:06:10.413Z,88.97
2018-12-22T15:08:40.158Z,89.17
2018-12-22T15:11:10.938Z,89.77
2018-12-22T15:13:43.011Z,90.81
2018-12-22T15:16:14.760Z,88.10
2018-12-22T15:18:48.177Z,87.53
2018-12-22T15:21:18.137Z,89.60
2018-12-22T15:23:51.575Z,92.28
2018-12-22T15:26:23.346Z,92.68
2018-12-22T15:28:53.801Z,92.80
2018-12-22T15:31:26.409Z,93.04
2018-12-22T15:33:57.557Z,93.03
2018-12-22T15:36:30.900Z,92.19
2018-12-22T15:39:04.046Z,92.19
2018-12-22T15:41:36.964Z,92.03
2018-12-22T15:44:12.945Z,92.48
2018-12-22T15:46:48.080Z,92.91
2018-12-22T15:49:22.524Z,93.62
2018-12-22T15:51:53.585Z,94.07
2018-12-22T15:54:24.036Z,94.61
2018-12-22T15:56:56.992Z,94.63
2018-12-22T15:59:31.934Z,94.58
2018-12-22T16:02:01.901Z,92.72
2018-12-22T16:04:34.673Z,91.78
2018-12-22T16:07:06.552Z,92.48
2018-12-22T16:09:44.524Z,92.10
2018-12-22T16:12:15.942Z,91.95
2018-12-22T16:14:47.289Z,92.43
2018-12-22T16:17:18.986Z,92.43
2018-12-22T16:19:49.075Z,91.26
2018-12-22T16:22:21.568Z,91.29
2018-12-22T16:24:53.660Z,91.21
2018-12-22T16:27:23.373Z,91.11
2018-12-22T16:29:53.799Z,90.38
2018-12-22T16:32:28.467Z,91.62
2018-12-22T16:34:59.756Z,92.43
2018-12-22T16:37:31.165Z,92.90
2018-12-22T16:40:03.427Z,93.22
2018-12-22T16:42:38.188Z,93.32
2018-12-22T16:45:11.808Z,94.02
2018-12-22T16:47:44.576Z,94.09
2018-12-22T16:50:17.564Z,93.57
2018-12-22T16:52:50.573Z,93.71
2018-12-22T16:55:21.906Z,94.41
2018-12-22T16:58:00.409Z,94.11
2018-12-22T17:00:32.092Z,94.04
2018-12-22T17:03:11.223Z,94.34
2018-12-22T17:05:40.872Z,93.96
2018-12-22T17:08:11.646Z,93.82
2018-12-22T17:10:50.009Z,93.23
2018-12-22T17:13:21.425Z,92.27
2018-12-22T17:15:58.349Z,92.87
2018-12-22T17:18:28.879Z,92.50
2018-12-22T17:21:35.986Z,91.55
2018-12-22T17:24:11.684Z,90.98
2018-12-22T17:26:46.193Z,90.98
2018-12-22T17:29:17.965Z,90.77
2018-12-22T17:31:47.820Z,91.30
2018-12-22T17:34:18.868Z,91.35
2018-12-22T17:36:49.095Z,92.09
2018-12-22T17:39:19.621Z,91.55
2018-12-22T17:41:52.275Z,91.76
2018-12-22T17:44:22.480Z,91.55
2018-12-22T17:46:56.442Z,91.36
2018-12-22T17:49:29.396Z,91.51
2018-12-22T17:52:01.714Z,91.32
2018-12-22T17:54:33.045Z,91.83
2018-12-22T17:57:04.157Z,91.15
2018-12-22T17:59:36.837Z,91.03
2018-12-22T18:02:08.286Z,91.50
2018-12-22T18:04:42.874Z,91.78
2018-12-22T18:07:15.558Z,92.39
2018-12-22T18:09:47.130Z,92.91
2018-12-22T18:12:17.922Z,93.40
2018-12-22T18:14:48.466Z,93.44
2018-12-22T18:17:20.981Z,92.74
2018-12-22T18:19:52.496Z,93.13
2018-12-22T18:22:25.441Z,93.38
2018-12-22T18:25:00.943Z,93.60
2018-12-22T18:27:33.673Z,93.31
2018-12-22T18:30:05.668Z,93.29
2018-12-22T18:32:38.186Z,93.36
2018-12-22T18:35:10.449Z,93.61
2018-12-22T18:37:43.213Z,93.16
2018-12-22T18:40:17.244Z,93.30
2018-12-22T18:42:48.426Z,93.52
2018-12-22T18:45:18.933Z,93.45
2018-12-22T18:47:49.336Z,93.56
2018-12-22T18:50:23.273Z,94.07
2018-12-22T18:52:54.213Z,94.27
2018-12-22T18:55:25.365Z,94.31
2018-12-22T18:57:56.809Z,94.78
2018-12-22T19:00:29.671Z,94.91
2018-12-22T19:03:01.946Z,95.14
2018-12-22T19:05:33.632Z,95.29
2018-12-22T19:08:06.924Z,94.69
2018-12-22T19:10:45.126Z,95.51
2018-12-22T19:13:15.166Z,95.49
2018-12-22T19:15:46.145Z,95.46
2018-12-22T19:18:16.538Z,95.02
2018-12-22T19:20:53.404Z,95.11
2018-12-22T19:23:29.036Z,95.02
2018-12-22T19:26:01.338Z,95.47
2018-12-22T19:28:31.961Z,94.82
2018-12-22T19:31:04.315Z,95.20
2018-12-22T19:33:36.979Z,95.41
2018-12-22T19:36:11.586Z,95.18
2018-12-22T19:38:42.373Z,94.93
2018-12-22T19:41:12.950Z,95.84
2018-12-22T19:43:45.753Z,96.29
2018-12-22T19:46:16.240Z,96.64
2018-12-22T19:48:50.784Z,96.54
2018-12-22T19:51:22.129Z,96.92
2018-12-22T19:53:54.016Z,97.44
2018-12-22T19:56:25.535Z,97.22
2018-12-22T19:58:57.129Z,97.32
2018-12-22T20:01:28.679Z,97.48
2018-12-22T20:04:02.221Z,97.26
2018-12-22T20:06:33.116Z,97.53
2018-12-22T20:09:05.811Z,97.32
2018-12-22T20:11:38.005Z,97.52
2018-12-22T20:14:07.733Z,97.39
2018-12-22T20:16:38.680Z,97.57
2018-12-22T20:19:09.563Z,97.23
2018-12-22T20:21:40.179Z,97.36
2018-12-22T20:24:11.501Z,97.70
2018-12-22T20:26:42.280Z,96.99
2018-12-22T20:29:13.921Z,96.72
2018-12-22T20:31:44.934Z,96.90
2018-12-22T20:34:15.612Z,97.06
2018-12-22T20:36:45.681Z,97.07
2018-12-22T20:39:17.141Z,97.38
2018-12-22T20:41:49.425Z,96.83
2018-12-22T20:44:28.879Z,96.98
2018-12-22T20:47:07.748Z,96.72
2018-12-22T20:49:43.487Z,96.96
2018-12-22T20:52:13.001Z,97.04
2018-12-22T20:54:42.632Z,97.31
2018-12-22T20:57:13.036Z,97.53
2018-12-22T20:59:44.757Z,97.05
2018-12-22T21:02:15.956Z,96.68
2018-12-22T21:04:48.648Z,96.80
2018-12-22T21:07:21.673Z,97.44
2018-12-22T21:09:52.701Z,97.21
2018-12-22T21:12:25.835Z,96.98
2018-12-22T21:14:57.005Z,97.26
2018-12-22T21:17:28.372Z,96.93
2018-12-22T21:20:01.225Z,96.99
2018-12-22T21:22:33.195Z,97.12
2018-12-22T21:28:42.988Z,96.98
2018-12-22T21:31:20.785Z,97.27
2018-12-22T21:33:58.184Z,97.09
2018-12-22T21:36:33.847Z,96.73
2018-12-22T21:39:09.919Z,96.71
2018-12-22T21:41:45.190Z,96.64
2018-12-22T21:44:23.779Z,97.26
2018-12-22T21:47:00.984Z,96.97
2018-12-22T21:49:37.546Z,97.16
2018-12-22T21:52:10.430Z,97.27
2018-12-22T21:54:42.293Z,97.27
2018-12-22T21:57:12.731Z,97.05
2018-12-22T21:59:43.098Z,97.00
2018-12-22T22:02:16.729Z,97.18
2018-12-22T22:04:46.954Z,97.35
2018-12-22T22:07:19.083Z,97.73
2018-12-22T22:09:49.718Z,97.13
2018-12-22T22:12:20.178Z,97.57
2018-12-22T22:14:50.366Z,97.27
2018-12-22T22:17:20.521Z,97.25
2018-12-22T22:19:52.611Z,97.43
2018-12-22T22:22:25.631Z,96.92
2018-12-22T22:24:57.476Z,97.12
2018-12-22T22:27:28.719Z,97.26
2018-12-22T22:29:59.237Z,97.03
2018-12-22T22:32:29.514Z,97.28
2018-12-22T22:35:00.715Z,97.38
2018-12-22T22:37:32.480Z,96.90
2018-12-22T22:40:07.802Z,97.28
2018-12-22T22:42:39.046Z,96.76
2018-12-22T22:45:10.456Z,96.99
2018-12-22T22:47:45.698Z,96.74
2018-12-22T22:50:17.916Z,96.43
2018-12-22T22:52:49.287Z,96.84
2018-12-22T22:55:20.699Z,96.21
2018-12-22T22:57:52.287Z,96.39
2018-12-22T23:00:27.204Z,96.32
2018-12-22T23:02:59.410Z,96.27
2018-12-22T23:05:30.428Z,96.37
2018-12-22T23:08:00.556Z,96.29
2018-12-22T23:10:32.725Z,96.37
2018-12-22T23:13:02.466Z,96.49
2018-12-22T23:15:34.113Z,96.27
2018-12-22T23:18:04.392Z,96.14
2018-12-22T23:20:35.580Z,95.86
2018-12-22T23:23:05.272Z,95.98
2018-12-22T23:25:35.145Z,95.75
2018-12-22T23:28:07.697Z,96.47
2018-12-22T23:30:37.740Z,96.42
2018-12-22T23:33:08.713Z,95.97
2018-12-22T23:35:38.722Z,96.00
2018-12-22T23:38:08.900Z,96.41
2018-12-22T23:40:40.629Z,96.40
2018-12-22T23:43:10.748Z,96.01
2018-12-22T23:45:40.562Z,96.01
2018-12-22T23:48:15.036Z,96.16
2018-12-22T23:50:44.854Z,96.03
2018-12-22T23:53:16.108Z,96.14
2018-12-22T23:55:46.941Z,95.91
2018-12-22T23:58:18.517Z,96.29
